createdAt,value
2023-04-07T00:01:36.816Z,85.85
2023-04-07T00:03:41.756Z,48.93
2023-04-07T00:05:44.557Z,21.58
2023-04-07T00:07:56.859Z,62.55
2023-04-07T00:10:01.865Z,51.75
2023-04-07T00:12:05.113Z,82.65
2023-04-07T00:14:07.886Z,107.07
2023-04-07T00:16:10.731Z,111.20
2023-04-07T00:18:24.342Z,21.63
2023-04-07T00:20:27.090Z,100.85
2023-04-07T00:22:32.818Z,107.63
2023-04-07T00:24:38.331Z,33.85
2023-04-07T00:26:40.879Z,36.85
2023-04-07T00:28:48.372Z,51.63
2023-04-07T00:30:51.157Z,73.38
2023-04-07T00:32:53.906Z,108.53
2023-04-07T00:34:56.635Z,56.78
2023-04-07T00:36:59.339Z,130.05
2023-04-07T00:39:01.906Z,98.03
2023-04-07T00:41:08.785Z,84.97
2023-04-07T00:43:11.526Z,49.53
2023-04-07T00:45:14.402Z,127.05
2023-04-07T00:47:17.269Z,153.55
2023-04-07T00:49:19.730Z,144.57
2023-04-07T00:51:23.079Z,79.88
2023-04-07T00:53:25.905Z,66.85
2023-04-07T00:55:28.872Z,85.68
2023-04-07T00:57:34.190Z,134.88
2023-04-07T00:59:38.070Z,117.60
2023-04-07T01:01:46.733Z,159.63
2023-04-07T01:04:13.918Z,44.00
2023-04-07T01:06:31.741Z,38.10
2023-04-07T01:08:43.009Z,78.90
2023-04-07T01:11:07.121Z,33.58
2023-04-07T01:13:31.006Z,37.55
2023-04-07T01:16:16.947Z,52.78
2023-04-07T01:18:28.957Z,80.32
2023-04-07T01:20:34.219Z,71.07
2023-04-07T01:22:43.360Z,102.28
2023-04-07T01:25:06.122Z,147.63
2023-04-07T01:27:21.663Z,117.20
2023-04-07T01:29:40.804Z,130.73
2023-04-07T01:32:06.528Z,89.22
2023-04-07T01:34:15.708Z,123.65
2023-04-07T01:36:27.150Z,150.98
2023-04-07T01:38:30.211Z,134.65
2023-04-07T01:40:47.544Z,148.88
2023-04-07T01:42:51.516Z,129.55
2023-04-07T01:44:59.689Z,159.20
2023-04-07T01:47:03.091Z,192.25
2023-04-07T01:49:06.832Z,190.43
2023-04-07T01:51:12.131Z,154.93
2023-04-07T01:53:16.161Z,159.75
2023-04-07T01:55:26.185Z,140.02
2023-04-07T01:57:41.876Z,133.25
2023-04-07T02:00:00.662Z,156.85
2023-04-07T02:02:15.369Z,182.90
2023-04-07T02:04:25.881Z,180.10
2023-04-07T02:06:33.792Z,179.13
2023-04-07T02:08:41.764Z,147.00
2023-04-07T02:10:49.592Z,153.73
2023-04-07T02:12:52.758Z,149.23
2023-04-07T02:15:00.956Z,185.55
2023-04-07T02:17:06.097Z,179.32
2023-04-07T02:19:09.448Z,193.50
2023-04-07T02:21:13.896Z,148.05
2023-04-07T02:23:17.645Z,181.85
2023-04-07T02:25:24.591Z,199.20
2023-04-07T02:27:29.523Z,195.50
2023-04-07T02:29:32.121Z,206.95
2023-04-07T02:31:41.703Z,216.73
2023-04-07T02:33:44.309Z,198.18
2023-04-07T02:35:48.416Z,206.82
2023-04-07T02:37:51.819Z,204.70
2023-04-07T02:39:55.713Z,188.07
2023-04-07T02:41:58.383Z,192.00
2023-04-07T02:44:15.583Z,167.52
2023-04-07T02:46:19.055Z,217.43
2023-04-07T02:48:27.118Z,192.15
2023-04-07T02:50:29.891Z,189.75
2023-04-07T02:52:32.654Z,188.05
2023-04-07T02:54:35.239Z,182.38
2023-04-07T02:56:39.478Z,151.52
2023-04-07T02:58:41.979Z,207.95
2023-04-07T03:00:45.722Z,209.18
2023-04-07T03:02:52.567Z,190.77
2023-04-07T03:04:58.609Z,171.57
2023-04-07T03:07:22.272Z,200.32
2023-04-07T03:09:31.735Z,189.35
2023-04-07T03:11:34.376Z,240.55
2023-04-07T03:13:37.089Z,220.43
2023-04-07T03:15:48.607Z,235.27
2023-04-07T03:17:52.244Z,200.27
2023-04-07T03:19:59.494Z,244.10
2023-04-07T03:22:08.161Z,221.68
2023-04-07T03:24:15.717Z,199.50
2023-04-07T03:26:18.239Z,228.63
2023-04-07T03:28:21.453Z,242.55
2023-04-07T03:30:24.173Z,224.82
2023-04-07T03:32:27.178Z,222.88
2023-04-07T03:34:30.088Z,220.60
2023-04-07T03:36:37.470Z,210.57
2023-04-07T03:38:41.609Z,238.75
2023-04-07T03:40:44.765Z,205.20
2023-04-07T03:42:47.537Z,255.35
2023-04-07T03:44:52.516Z,169.77
2023-04-07T03:46:55.832Z,180.13
2023-04-07T03:49:00.119Z,181.90
2023-04-07T03:51:02.814Z,241.40
2023-04-07T03:53:10.068Z,180.82
2023-04-07T03:55:12.838Z,228.70
2023-04-07T03:57:16.748Z,179.23
2023-04-07T03:59:22.750Z,214.48
2023-04-07T04:01:33.907Z,186.40
2023-04-07T04:03:43.787Z,174.93
2023-04-07T04:05:57.695Z,169.38
2023-04-07T04:08:06.190Z,221.43
2023-04-07T04:10:16.333Z,154.68
2023-04-07T04:12:23.378Z,160.02
2023-04-07T04:14:37.767Z,87.65
2023-04-07T04:16:52.141Z,130.75
2023-04-07T04:19:18.333Z,150.75
2023-04-07T04:21:21.051Z,183.25
2023-04-07T04:23:23.585Z,138.52
2023-04-07T04:25:32.780Z,171.75
2023-04-07T04:27:38.034Z,209.25
2023-04-07T04:29:49.020Z,229.73
2023-04-07T04:32:00.842Z,234.75
2023-04-07T04:34:04.404Z,169.68
2023-04-07T04:36:08.027Z,195.75
2023-04-07T04:38:11.529Z,173.63
2023-04-07T04:40:19.441Z,143.63
2023-04-07T04:42:28.348Z,129.77
2023-04-07T04:44:32.733Z,198.57
2023-04-07T04:46:38.054Z,141.48
2023-04-07T04:48:41.103Z,149.32
2023-04-07T04:50:46.267Z,178.95
2023-04-07T04:52:51.009Z,143.27
2023-04-07T04:54:57.718Z,126.90
2023-04-07T04:57:02.800Z,223.73
2023-04-07T04:59:08.669Z,149.47
2023-04-07T05:01:28.015Z,131.57
2023-04-07T05:03:38.845Z,167.75
2023-04-07T05:05:49.014Z,178.77
2023-04-07T05:07:54.987Z,180.77
2023-04-07T05:09:58.381Z,159.77
2023-04-07T05:12:02.768Z,108.50
2023-04-07T05:14:12.809Z,196.98
2023-04-07T05:16:20.044Z,139.43
2023-04-07T05:18:24.506Z,138.65
2023-04-07T05:20:27.984Z,208.80
2023-04-07T05:22:31.198Z,191.32
2023-04-07T05:24:34.788Z,177.52
2023-04-07T05:26:38.993Z,184.20
2023-04-07T05:28:42.371Z,202.90
2023-04-07T05:30:54.108Z,165.98
2023-04-07T05:33:01.342Z,100.85
2023-04-07T05:35:15.046Z,113.93
2023-04-07T05:37:24.921Z,170.82
2023-04-07T05:39:27.772Z,166.35
2023-04-07T05:41:32.772Z,157.38
2023-04-07T05:43:37.753Z,196.52
2023-04-07T05:45:42.825Z,158.95
2023-04-07T05:47:50.938Z,157.68
2023-04-07T05:50:01.155Z,178.77
2023-04-07T05:52:06.125Z,151.85
2023-04-07T05:54:13.085Z,172.05
2023-04-07T05:56:22.309Z,83.32
2023-04-07T05:58:26.376Z,132.25
2023-04-07T06:00:31.537Z,154.02
2023-04-07T06:02:46.771Z,173.25
2023-04-07T06:04:56.885Z,161.55
2023-04-07T06:07:05.133Z,170.02
2023-04-07T06:09:08.370Z,114.63
2023-04-07T06:11:11.413Z,135.02
2023-04-07T06:13:14.159Z,121.53
2023-04-07T06:15:18.752Z,93.70
2023-04-07T06:17:41.278Z,181.23
2023-04-07T06:19:44.519Z,192.73
2023-04-07T06:21:50.124Z,125.85
2023-04-07T06:23:55.786Z,136.70
2023-04-07T06:26:13.426Z,91.53
2023-04-07T06:28:16.841Z,141.40
2023-04-07T06:30:22.118Z,189.02
2023-04-07T06:32:29.122Z,146.20
2023-04-07T06:34:50.934Z,159.07
2023-04-07T06:37:17.174Z,170.23
2023-04-07T06:39:42.302Z,136.02
2023-04-07T06:42:04.988Z,123.70
2023-04-07T06:44:13.409Z,117.80
2023-04-07T06:46:16.056Z,120.22
2023-04-07T06:48:25.126Z,126.60
2023-04-07T06:50:27.843Z,168.13
2023-04-07T06:52:35.090Z,146.30
2023-04-07T06:54:40.384Z,150.95
2023-04-07T06:56:43.242Z,151.73
2023-04-07T06:58:46.400Z,148.68
2023-04-07T07:00:48.945Z,152.18
2023-04-07T07:02:52.529Z,163.13
2023-04-07T07:04:55.102Z,165.75
2023-04-07T07:06:58.265Z,149.77
2023-04-07T07:09:19.735Z,132.65
2023-04-07T07:11:22.345Z,110.45
2023-04-07T07:13:26.864Z,152.98
2023-04-07T07:15:30.967Z,93.20
2023-04-07T07:17:33.848Z,131.20
2023-04-07T07:19:36.490Z,178.98
2023-04-07T07:21:46.599Z,156.93
2023-04-07T07:23:59.389Z,152.13
2023-04-07T07:26:06.407Z,142.45
2023-04-07T07:28:09.909Z,106.28
2023-04-07T07:32:36.104Z,42.33
2023-04-07T07:34:38.644Z,102.85
2023-04-07T07:36:41.656Z,139.32
2023-04-07T07:38:44.282Z,124.85
2023-04-07T07:40:48.158Z,80.22
2023-04-07T07:43:13.271Z,58.70
2023-04-07T07:45:17.708Z,94.55
2023-04-07T07:47:37.996Z,73.45
2023-04-07T07:49:42.360Z,49.13
2023-04-07T07:51:47.326Z,51.38
2023-04-07T07:53:50.047Z,109.00
2023-04-07T07:55:53.007Z,31.02
2023-04-07T07:57:57.986Z,42.85
2023-04-07T08:00:04.657Z,54.28
2023-04-07T08:02:16.197Z,96.00
2023-04-07T08:04:19.298Z,106.15
2023-04-07T08:06:22.262Z,35.55
2023-04-07T08:08:45.059Z,33.65
2023-04-07T08:11:07.603Z,66.55
2023-04-07T08:13:30.273Z,15.95
2023-04-07T08:15:47.342Z,40.03
2023-04-07T08:17:49.904Z,68.88
2023-04-07T08:19:52.481Z,81.18
2023-04-07T08:21:54.973Z,20.75
2023-04-07T08:23:57.600Z,40.08
2023-04-07T08:26:00.272Z,52.33
2023-04-07T08:28:02.762Z,56.15
2023-04-07T08:30:09.945Z,60.25
2023-04-07T08:32:16.305Z,55.85
2023-04-07T08:34:20.959Z,50.20
2023-04-07T08:36:23.776Z,52.65
2023-04-07T08:38:26.562Z,73.72
2023-04-07T08:40:29.388Z,58.15
2023-04-07T08:42:34.083Z,40.35
2023-04-07T08:44:38.522Z,49.05
2023-04-07T08:46:41.746Z,36.20
2023-04-07T08:48:51.721Z,32.80
2023-04-07T08:50:54.874Z,29.15
2023-04-07T08:53:00.912Z,51.10
2023-04-07T08:55:07.031Z,58.13
2023-04-07T08:57:10.148Z,52.40
2023-04-07T08:59:14.990Z,17.58
2023-04-07T09:01:18.413Z,22.25
2023-04-07T09:03:22.967Z,24.40
2023-04-07T09:05:28.404Z,32.20
2023-04-07T09:07:33.253Z,47.00
2023-04-07T09:09:35.955Z,41.28
2023-04-07T09:11:40.843Z,87.03
2023-04-07T09:13:46.429Z,49.20
2023-04-07T09:15:49.196Z,17.92
2023-04-07T09:17:51.925Z,28.75
2023-04-07T09:19:57.485Z,20.48
2023-04-07T09:22:02.615Z,21.38
2023-04-07T09:24:21.391Z,24.40
2023-04-07T09:26:25.818Z,15.57
2023-04-07T09:28:43.257Z,20.88
2023-04-07T09:30:54.970Z,19.30
2023-04-07T09:32:59.340Z,19.63
2023-04-07T09:35:01.948Z,15.82
2023-04-07T09:37:09.618Z,16.38
2023-04-07T09:39:13.719Z,19.02
2023-04-07T09:41:17.469Z,14.18
2023-04-07T09:43:20.224Z,14.05
2023-04-07T09:45:33.729Z,13.50
2023-04-07T09:49:51.343Z,13.13
2023-04-07T09:51:56.239Z,15.30
2023-04-07T09:54:01.248Z,18.70
2023-04-07T09:56:04.801Z,11.77
2023-04-07T09:58:09.532Z,11.32
2023-04-07T10:00:32.253Z,24.25
2023-04-07T10:02:34.873Z,11.57
2023-04-07T10:04:37.856Z,12.13
2023-04-07T10:06:41.764Z,13.27
2023-04-07T10:08:44.582Z,12.75
2023-04-07T10:10:51.477Z,11.27
2023-04-07T10:12:55.932Z,10.05
2023-04-07T10:17:02.388Z,10.00
2023-04-07T10:19:07.084Z,9.98
2023-04-07T10:21:20.946Z,10.60
2023-04-07T10:24:03.879Z,11.00
2023-04-07T10:26:10.054Z,13.25
2023-04-07T10:28:16.684Z,12.43
2023-04-07T10:31:03.321Z,11.15
2023-04-07T10:33:46.271Z,12.55
2023-04-07T10:36:06.185Z,12.90
2023-04-07T10:38:16.951Z,15.30
2023-04-07T10:40:30.366Z,15.95
2023-04-07T10:42:53.756Z,14.73
2023-04-07T10:45:16.694Z,15.82
2023-04-07T10:47:19.648Z,13.48
2023-04-07T10:49:22.377Z,16.40
2023-04-07T10:51:24.924Z,19.15
2023-04-07T10:53:27.584Z,19.27
2023-04-07T10:55:38.219Z,13.80
2023-04-07T10:58:22.906Z,16.20
2023-04-07T11:00:25.773Z,17.55
2023-04-07T11:02:35.612Z,14.68
2023-04-07T11:04:39.126Z,16.52
2023-04-07T11:06:48.266Z,16.60
2023-04-07T11:08:52.546Z,12.50
2023-04-07T11:11:16.983Z,20.70
2023-04-07T11:13:44.572Z,12.50
2023-04-07T11:15:51.344Z,14.40
2023-04-07T11:18:12.986Z,27.20
2023-04-07T11:20:15.735Z,36.05
2023-04-07T11:24:38.881Z,29.08
2023-04-07T11:28:59.186Z,41.55
2023-04-07T11:31:03.152Z,28.02
2023-04-07T11:33:06.059Z,23.15
2023-04-07T11:35:10.612Z,32.75
2023-04-07T11:37:25.080Z,30.92
2023-04-07T11:39:39.737Z,32.28
2023-04-07T11:41:47.346Z,29.83
2023-04-07T11:43:51.247Z,28.70
2023-04-07T11:46:12.868Z,29.13
2023-04-07T11:48:29.292Z,23.50
2023-04-07T11:50:41.497Z,25.90
2023-04-07T11:52:48.233Z,23.63
2023-04-07T11:54:51.012Z,26.17
2023-04-07T11:56:56.216Z,22.63
2023-04-07T11:58:59.366Z,24.80
2023-04-07T12:01:06.063Z,25.63
2023-04-07T12:03:15.044Z,22.30
2023-04-07T12:05:18.148Z,25.13
2023-04-07T12:07:21.480Z,24.10
2023-04-07T12:09:36.698Z,23.57
2023-04-07T12:11:50.401Z,20.92
2023-04-07T12:13:53.164Z,24.95
2023-04-07T12:15:55.911Z,20.42
2023-04-07T12:17:58.947Z,23.58
2023-04-07T12:20:04.821Z,21.38
2023-04-07T12:22:07.632Z,26.00
2023-04-07T12:24:10.143Z,26.15
2023-04-07T12:26:13.356Z,17.63
2023-04-07T12:28:16.116Z,9.75
2023-04-07T12:30:21.124Z,15.65
2023-04-07T12:32:23.957Z,19.58
2023-04-07T12:34:27.626Z,16.85
2023-04-07T12:36:36.631Z,10.85
2023-04-07T12:38:41.000Z,10.75
2023-04-07T12:40:44.101Z,11.07
2023-04-07T12:42:46.645Z,9.63
2023-04-07T12:44:50.528Z,12.30
2023-04-07T12:46:53.720Z,11.85
2023-04-07T12:48:56.345Z,10.98
2023-04-07T12:50:58.915Z,11.70
2023-04-07T12:53:05.559Z,11.13
2023-04-07T12:55:08.647Z,12.75
2023-04-07T12:57:11.486Z,10.82
2023-04-07T12:59:14.296Z,14.45
2023-04-07T13:01:17.117Z,15.90
2023-04-07T13:03:19.867Z,10.80
2023-04-07T13:05:22.705Z,11.32
2023-04-07T13:07:25.281Z,12.85
2023-04-07T13:09:33.450Z,13.57
2023-04-07T13:11:36.471Z,28.52
2023-04-07T13:13:38.984Z,11.85
2023-04-07T13:15:41.597Z,24.55
2023-04-07T13:17:44.158Z,20.38
2023-04-07T13:19:47.710Z,12.05
2023-04-07T13:21:50.182Z,12.75
2023-04-07T13:23:52.837Z,24.27
2023-04-07T13:25:57.853Z,43.67
2023-04-07T13:28:00.650Z,28.73
2023-04-07T13:30:03.434Z,13.57
2023-04-07T13:32:07.108Z,51.83
2023-04-07T13:34:09.531Z,22.80
2023-04-07T13:36:12.042Z,17.00
2023-04-07T13:38:15.693Z,15.48
2023-04-07T13:40:18.275Z,23.65
2023-04-07T13:42:23.466Z,15.05
2023-04-07T13:44:27.562Z,10.48
2023-04-07T13:48:32.886Z,19.70
2023-04-07T13:50:36.951Z,9.82
2023-04-07T13:52:39.440Z,8.82
2023-04-07T13:54:42.249Z,9.77
2023-04-07T13:56:44.712Z,16.77
2023-04-07T13:58:49.865Z,24.77
2023-04-07T14:00:52.380Z,24.92
2023-04-07T14:02:56.316Z,20.83
2023-04-07T14:04:59.001Z,14.65
2023-04-07T14:07:01.455Z,24.75
2023-04-07T14:09:04.317Z,33.10
2023-04-07T14:11:06.774Z,17.83
2023-04-07T14:13:09.218Z,36.03
2023-04-07T14:15:15.182Z,23.52
2023-04-07T14:17:18.634Z,20.45
2023-04-07T14:19:24.820Z,12.45
2023-04-07T14:21:31.538Z,14.88
2023-04-07T14:23:37.579Z,11.35
2023-04-07T14:25:40.334Z,10.80
2023-04-07T14:27:42.838Z,20.92
2023-04-07T14:29:45.290Z,11.50
2023-04-07T14:31:51.653Z,10.48
2023-04-07T14:33:54.584Z,10.52
2023-04-07T14:35:57.711Z,12.90
2023-04-07T14:38:00.567Z,8.25
2023-04-07T14:40:04.017Z,29.35
2023-04-07T14:42:07.700Z,20.40
2023-04-07T14:44:10.204Z,12.95
2023-04-07T14:46:12.717Z,27.20
2023-04-07T14:48:17.915Z,40.25
2023-04-07T14:50:20.467Z,48.60
2023-04-07T14:52:22.994Z,63.70
2023-04-07T14:54:25.610Z,63.58
2023-04-07T14:56:28.258Z,31.58
2023-04-07T14:58:30.762Z,12.07
2023-04-07T15:00:33.251Z,20.30
2023-04-07T15:02:36.675Z,16.10
2023-04-07T15:04:42.106Z,25.63
2023-04-07T15:06:46.934Z,12.65
2023-04-07T15:08:51.122Z,32.90
2023-04-07T15:10:54.891Z,23.42
2023-04-07T15:12:57.326Z,31.13
2023-04-07T15:14:59.845Z,45.05
2023-04-07T15:17:02.339Z,41.78
2023-04-07T15:19:04.917Z,27.98
2023-04-07T15:21:10.969Z,41.97
2023-04-07T15:23:14.977Z,16.65
2023-04-07T15:25:17.658Z,27.67
2023-04-07T15:27:20.123Z,28.92
2023-04-07T15:29:22.631Z,47.45
2023-04-07T15:31:27.362Z,30.30
2023-04-07T15:33:29.940Z,54.35
2023-04-07T15:35:32.505Z,42.95
2023-04-07T15:37:38.672Z,36.92
2023-04-07T15:39:41.168Z,45.40
2023-04-07T15:41:44.532Z,58.07
2023-04-07T15:43:47.125Z,43.35
2023-04-07T15:45:49.685Z,32.00
2023-04-07T15:47:53.700Z,32.33
2023-04-07T15:49:56.318Z,24.92
2023-04-07T15:51:59.716Z,15.43
2023-04-07T15:54:04.825Z,16.23
2023-04-07T15:56:07.696Z,32.65
2023-04-07T15:58:10.772Z,30.40
2023-04-07T16:00:14.701Z,21.77
2023-04-07T16:02:17.186Z,33.35
2023-04-07T16:04:19.868Z,17.55
2023-04-07T16:06:22.563Z,21.60
2023-04-07T16:08:25.714Z,23.35
2023-04-07T16:10:30.921Z,24.88
2023-04-07T16:12:34.507Z,21.73
2023-04-07T16:14:37.021Z,35.42
2023-04-07T16:16:41.571Z,29.30
2023-04-07T16:18:44.119Z,27.85
2023-04-07T16:20:46.548Z,21.08
2023-04-07T16:22:49.073Z,26.67
2023-04-07T16:24:51.639Z,22.45
2023-04-07T16:26:56.794Z,24.75
2023-04-07T16:28:59.285Z,26.90
2023-04-07T16:31:02.862Z,24.00
2023-04-07T16:33:05.372Z,24.85
2023-04-07T16:35:08.911Z,20.17
2023-04-07T16:37:11.866Z,27.55
2023-04-07T16:39:14.352Z,26.75
2023-04-07T16:41:16.806Z,43.90
2023-04-07T16:43:22.700Z,21.23
2023-04-07T16:45:25.235Z,24.85
2023-04-07T16:47:28.350Z,21.25
2023-04-07T16:49:30.948Z,12.70
2023-04-07T16:51:33.441Z,24.23
2023-04-07T16:53:35.911Z,14.73
2023-04-07T16:55:38.778Z,15.57
2023-04-07T16:57:41.238Z,24.77
2023-04-07T16:59:46.631Z,13.25
2023-04-07T17:01:49.166Z,28.48
2023-04-07T17:03:52.766Z,31.80
2023-04-07T17:05:55.747Z,45.30
2023-04-07T17:07:58.276Z,12.48
2023-04-07T17:10:01.313Z,40.15
2023-04-07T17:12:04.417Z,50.58
2023-04-07T17:14:06.995Z,15.13
2023-04-07T17:16:14.443Z,49.08
2023-04-07T17:18:17.074Z,31.77
2023-04-07T17:20:19.667Z,23.60
2023-04-07T17:22:22.209Z,11.93
2023-04-07T17:24:25.108Z,13.55
2023-04-07T17:26:27.653Z,18.65
2023-04-07T17:28:33.001Z,24.63
2023-04-07T17:30:38.842Z,13.70
2023-04-07T17:32:43.963Z,16.65
2023-04-07T17:34:46.667Z,12.63
2023-04-07T17:36:49.619Z,15.63
2023-04-07T17:38:55.162Z,15.98
2023-04-07T17:40:59.032Z,11.32
2023-04-07T17:43:02.922Z,14.93
2023-04-07T17:45:08.427Z,13.45
2023-04-07T17:47:10.960Z,15.50
2023-04-07T17:49:17.363Z,11.48
2023-04-07T17:51:19.925Z,12.93
2023-04-07T17:53:22.315Z,12.50
2023-04-07T17:55:24.761Z,11.23
2023-04-07T17:57:27.229Z,12.82
2023-04-07T17:59:32.278Z,11.40
2023-04-07T18:01:35.054Z,11.48
2023-04-07T18:03:38.578Z,10.48
2023-04-07T18:05:46.811Z,10.10
2023-04-07T18:07:51.899Z,10.30
2023-04-07T18:09:54.615Z,22.20
2023-04-07T18:11:57.090Z,10.95
2023-04-07T18:13:59.620Z,10.27
2023-04-07T18:16:02.150Z,12.95
2023-04-07T18:18:04.895Z,10.35
2023-04-07T18:20:08.548Z,9.95
2023-04-07T18:22:15.626Z,14.50
2023-04-07T18:24:18.284Z,10.95
2023-04-07T18:26:20.855Z,10.73
2023-04-07T18:28:23.406Z,12.68
2023-04-07T18:30:25.901Z,15.10
2023-04-07T18:32:28.571Z,25.88
2023-04-07T18:34:31.049Z,17.85
2023-04-07T18:36:33.834Z,19.42
2023-04-07T18:38:39.243Z,19.05
2023-04-07T18:40:41.763Z,9.57
2023-04-07T18:42:44.230Z,10.90
2023-04-07T18:44:46.705Z,14.75
2023-04-07T18:46:50.049Z,9.95
2023-04-07T18:48:52.486Z,16.35
2023-04-07T18:50:55.832Z,23.88
2023-04-07T18:52:58.925Z,9.67
2023-04-07T18:55:05.076Z,9.35
2023-04-07T18:57:08.112Z,9.70
2023-04-07T18:59:10.984Z,9.90
2023-04-07T19:01:13.824Z,12.45
2023-04-07T19:03:16.702Z,8.73
2023-04-07T19:05:23.064Z,9.20
2023-04-07T19:07:28.102Z,9.57
2023-04-07T19:09:30.685Z,9.10
2023-04-07T19:11:36.235Z,9.45
2023-04-07T19:13:38.717Z,9.18
2023-04-07T19:15:46.333Z,9.40
2023-04-07T19:17:48.891Z,9.48
2023-04-07T19:19:51.525Z,8.75
2023-04-07T19:21:54.120Z,9.30
2023-04-07T19:23:56.795Z,8.70
2023-04-07T19:26:01.007Z,8.90
2023-04-07T19:30:09.511Z,11.10
2023-04-07T19:32:11.967Z,10.43
2023-04-07T19:34:14.480Z,10.50
2023-04-07T19:36:17.121Z,11.65
2023-04-07T19:38:19.856Z,12.07
2023-04-07T19:40:23.558Z,13.77
2023-04-07T19:42:26.520Z,11.18
2023-04-07T19:44:31.748Z,11.93
2023-04-07T19:46:34.393Z,11.70
2023-04-07T19:48:37.923Z,11.93
2023-04-07T19:50:43.892Z,11.52
2023-04-07T19:52:47.422Z,10.85
2023-04-07T19:54:49.980Z,10.52
2023-04-07T19:56:52.692Z,10.70
2023-04-07T19:58:55.248Z,11.65
2023-04-07T20:01:00.555Z,11.85
2023-04-07T20:03:03.821Z,10.75
2023-04-07T20:05:09.932Z,10.23
2023-04-07T20:07:12.525Z,9.05
2023-04-07T20:09:15.127Z,10.23
2023-04-07T20:11:17.653Z,9.77
2023-04-07T20:13:20.600Z,10.40
2023-04-07T20:15:25.018Z,10.00
2023-04-07T20:17:32.697Z,10.93
2023-04-07T20:19:35.526Z,9.95
2023-04-07T20:21:38.059Z,9.85
2023-04-07T20:23:40.905Z,9.98
2023-04-07T20:25:43.352Z,9.65
2023-04-07T20:27:49.228Z,11.07
2023-04-07T20:29:52.385Z,11.93
2023-04-07T20:31:54.817Z,12.40
2023-04-07T20:34:00.332Z,10.57
2023-04-07T20:36:02.888Z,9.85
2023-04-07T20:38:05.711Z,10.40
2023-04-07T20:40:09.553Z,10.02
2023-04-07T20:42:12.749Z,10.32
2023-04-07T20:44:15.818Z,9.00
2023-04-07T20:46:19.451Z,9.77
2023-04-07T20:48:24.133Z,10.82
2023-04-07T20:50:29.992Z,13.05
2023-04-07T20:52:32.432Z,11.02
2023-04-07T20:54:36.320Z,13.55
2023-04-07T20:56:39.040Z,13.27
2023-04-07T20:58:41.969Z,13.25
2023-04-07T21:00:44.614Z,11.55
2023-04-07T21:02:48.773Z,9.93
2023-04-07T21:04:52.151Z,9.65
2023-04-07T21:06:57.415Z,10.07
2023-04-07T21:09:00.108Z,11.98
2023-04-07T21:11:05.577Z,9.48
2023-04-07T21:13:08.080Z,9.73
2023-04-07T21:15:11.615Z,10.60
2023-04-07T21:17:14.635Z,7.80
2023-04-07T21:19:17.917Z,11.48
2023-04-07T21:21:20.669Z,10.45
2023-04-07T21:23:26.149Z,8.30
2023-04-07T21:25:28.857Z,9.25
2023-04-07T21:27:31.955Z,7.97
2023-04-07T21:29:34.488Z,8.60
2023-04-07T21:31:37.236Z,7.35
2023-04-07T21:33:40.095Z,9.50
2023-04-07T21:35:43.712Z,9.80
2023-04-07T21:37:47.666Z,11.50
2023-04-07T21:39:55.759Z,12.15
2023-04-07T21:42:01.712Z,10.52
2023-04-07T21:44:09.447Z,18.20
2023-04-07T21:46:14.419Z,13.68
2023-04-07T21:48:20.965Z,16.20
2023-04-07T21:50:24.179Z,11.57
2023-04-07T21:52:29.566Z,18.02
2023-04-07T21:54:32.524Z,13.63
2023-04-07T21:56:37.757Z,16.73
2023-04-07T21:58:42.123Z,19.75
2023-04-07T22:00:47.829Z,31.60
2023-04-07T22:02:51.623Z,23.13
2023-04-07T22:04:54.364Z,33.17
2023-04-07T22:06:58.275Z,41.03
2023-04-07T22:09:02.226Z,25.45
2023-04-07T22:11:18.456Z,24.10
2023-04-07T22:13:23.771Z,20.70
2023-04-07T22:15:26.781Z,22.30
2023-04-07T22:17:34.001Z,28.10
2023-04-07T22:21:50.102Z,22.50
2023-04-07T22:23:52.682Z,37.45
2023-04-07T22:25:55.646Z,34.05
2023-04-07T22:27:59.394Z,30.70
2023-04-07T22:30:05.565Z,43.65
2023-04-07T22:32:18.600Z,35.17
2023-04-07T22:34:21.296Z,43.17
2023-04-07T22:36:23.803Z,37.28
2023-04-07T22:38:29.350Z,32.42
2023-04-07T22:40:32.126Z,33.17
2023-04-07T22:42:35.738Z,39.00
2023-04-07T22:44:38.345Z,38.47
2023-04-07T22:46:49.382Z,47.63
2023-04-07T22:48:52.117Z,36.15
2023-04-07T22:50:55.036Z,29.48
2023-04-07T22:52:58.297Z,30.42
2023-04-07T22:55:00.889Z,33.35
2023-04-07T22:57:04.211Z,28.25
2023-04-07T22:59:09.772Z,26.77
2023-04-07T23:01:12.687Z,28.70
2023-04-07T23:03:18.139Z,27.80
2023-04-07T23:05:20.950Z,31.08
2023-04-07T23:07:23.518Z,28.17
2023-04-07T23:09:26.610Z,27.75
2023-04-07T23:11:30.512Z,31.65
2023-04-07T23:13:33.336Z,29.70
2023-04-07T23:15:38.858Z,27.50
2023-04-07T23:17:41.701Z,28.80
2023-04-07T23:19:46.897Z,27.02
2023-04-07T23:21:50.024Z,24.50
2023-04-07T23:23:52.864Z,23.52
2023-04-07T23:25:55.612Z,23.15
2023-04-07T23:27:59.474Z,19.80
2023-04-07T23:30:02.362Z,17.27
2023-04-07T23:32:05.956Z,16.73
2023-04-07T23:34:08.516Z,15.37
2023-04-07T23:36:14.104Z,15.80
2023-04-07T23:38:17.411Z,15.52
2023-04-07T23:40:20.435Z,15.73
2023-04-07T23:42:23.020Z,14.73
2023-04-07T23:44:25.828Z,14.70
2023-04-07T23:46:28.544Z,14.50
2023-04-07T23:48:31.629Z,15.40
2023-04-07T23:50:34.407Z,16.92
2023-04-07T23:52:39.741Z,16.88
2023-04-07T23:54:43.266Z,19.67
2023-04-07T23:56:46.038Z,18.30
2023-04-07T23:58:49.125Z,17.50
